HK3699G TIST-TUPA
Flight info
| Callsign | HK3699G |
|---|---|
| Flight time | 1h 21m |
| Altitude | 5000 |
| Route | TUPJ |
| Aircraft | SR22/L-SDGRY/S |
Departure
| Time | 2026-04-27 15:42 |
|---|---|
| Airport | Cyril E. King Airport (TIST) |
Arrival
| Time | 2026-04-27 17:03 |
|---|---|
| Airport | Captain Auguste George Airport (TUPA) |
| Time | Latitude | Longitude | Altitude | Speed | Heading |
|---|---|---|---|---|---|
| 2026-04-27 15:13 | 18.33179 | -64.97179 | 26 ft | 0 kts | 0° |
| 2026-04-27 15:23 | 18.33180 | -64.97179 | 26 ft | 0 kts | 1° |
| 2026-04-27 15:24 | 18.33183 | -64.97180 | 26 ft | 0 kts | 359° |
| 2026-04-27 15:24 | 18.33203 | -64.97181 | 26 ft | 5 kts | 355° |
| 2026-04-27 15:24 | 18.33237 | -64.97182 | 26 ft | 5 kts | 1° |
| 2026-04-27 15:25 | 18.33287 | -64.97182 | 26 ft | 7 kts | 339° |
| 2026-04-27 15:25 | 18.33333 | -64.97227 | 26 ft | 10 kts | 312° |
| 2026-04-27 15:25 | 18.33387 | -64.97289 | 26 ft | 12 kts | 312° |
| 2026-04-27 15:25 | 18.33448 | -64.97359 | 25 ft | 12 kts | 312° |
| 2026-04-27 15:26 | 18.33504 | -64.97394 | 25 ft | 8 kts | 353° |
| 2026-04-27 15:26 | 18.33554 | -64.97396 | 25 ft | 1 kts | 356° |
| 2026-04-27 15:26 | 18.33555 | -64.97396 | 24 ft | 0 kts | 355° |
| 2026-04-27 15:26 | 18.33556 | -64.97396 | 24 ft | 0 kts | 357° |
| 2026-04-27 15:27 | 18.33565 | -64.97397 | 24 ft | 3 kts | 355° |
| 2026-04-27 15:27 | 18.33575 | -64.97398 | 24 ft | 0 kts | 359° |
| 2026-04-27 15:32 | 18.33580 | -64.97398 | 24 ft | 2 kts | 360° |
| 2026-04-27 15:33 | 18.33611 | -64.97411 | 24 ft | 7 kts | 312° |
| 2026-04-27 15:33 | 18.33621 | -64.97476 | 24 ft | 11 kts | 265° |
| 2026-04-27 15:33 | 18.33615 | -64.97555 | 23 ft | 10 kts | 266° |
| 2026-04-27 15:33 | 18.33608 | -64.97634 | 23 ft | 10 kts | 267° |
| 2026-04-27 15:34 | 18.33603 | -64.97717 | 23 ft | 11 kts | 266° |
| 2026-04-27 15:34 | 18.33600 | -64.97800 | 22 ft | 11 kts | 268° |
| 2026-04-27 15:34 | 18.33597 | -64.97881 | 22 ft | 10 kts | 268° |
| 2026-04-27 15:34 | 18.33593 | -64.97963 | 22 ft | 11 kts | 265° |
| 2026-04-27 15:35 | 18.33591 | -64.98037 | 22 ft | 8 kts | 270° |
| 2026-04-27 15:35 | 18.33586 | -64.98106 | 21 ft | 10 kts | 268° |
| 2026-04-27 15:35 | 18.33584 | -64.98186 | 21 ft | 11 kts | 268° |
| 2026-04-27 15:35 | 18.33582 | -64.98266 | 22 ft | 8 kts | 270° |
| 2026-04-27 15:36 | 18.33590 | -64.98315 | 22 ft | 4 kts | 305° |
| 2026-04-27 15:36 | 18.33610 | -64.98328 | 22 ft | 0 kts | 360° |
| 2026-04-27 15:37 | 18.33611 | -64.98328 | 22 ft | 0 kts | 356° |
| 2026-04-27 15:38 | 18.33623 | -64.98328 | 22 ft | 5 kts | 1° |
| 2026-04-27 15:38 | 18.33683 | -64.98322 | 22 ft | 10 kts | 39° |
| 2026-04-27 15:38 | 18.33688 | -64.98305 | 22 ft | 0 kts | 86° |
| 2026-04-27 15:41 | 18.33691 | -64.98266 | 22 ft | 26 kts | 84° |
| 2026-04-27 15:41 | 18.33712 | -64.97784 | 22 ft | 96 kts | 86° |
| 2026-04-27 15:41 | 18.33755 | -64.97102 | 411 ft | 90 kts | 91° |
| 2026-04-27 15:41 | 18.33729 | -64.96353 | 534 ft | 108 kts | 99° |
| 2026-04-27 15:42 | 18.33682 | -64.95636 | 889 ft | 99 kts | 100° |
| 2026-04-27 15:42 | 18.33433 | -64.94978 | 1210 ft | 95 kts | 122° |
| 2026-04-27 15:42 | 18.33038 | -64.94383 | 1430 ft | 102 kts | 124° |
| 2026-04-27 15:42 | 18.32599 | -64.93790 | 1649 ft | 109 kts | 129° |
| 2026-04-27 15:43 | 18.32086 | -64.93137 | 1762 ft | 122 kts | 128° |
| 2026-04-27 15:43 | 18.31482 | -64.92447 | 1842 ft | 134 kts | 134° |
| 2026-04-27 15:43 | 18.30836 | -64.91777 | 2150 ft | 125 kts | 129° |
| 2026-04-27 15:43 | 18.30354 | -64.90987 | 2261 ft | 135 kts | 118° |
| 2026-04-27 15:44 | 18.30025 | -64.90041 | 2382 ft | 139 kts | 102° |
| 2026-04-27 15:44 | 18.30045 | -64.89012 | 2528 ft | 143 kts | 81° |
| 2026-04-27 15:44 | 18.30297 | -64.88005 | 2674 ft | 141 kts | 76° |
| 2026-04-27 15:44 | 18.30678 | -64.87043 | 2760 ft | 144 kts | 68° |
| 2026-04-27 15:45 | 18.31138 | -64.86103 | 2864 ft | 145 kts | 62° |
| 2026-04-27 15:45 | 18.31914 | -64.85407 | 2891 ft | 155 kts | 25° |
| 2026-04-27 15:45 | 18.33007 | -64.85285 | 2977 ft | 158 kts | 356° |
| 2026-04-27 15:45 | 18.34047 | -64.85576 | 3118 ft | 156 kts | 338° |
| 2026-04-27 15:46 | 18.34996 | -64.86163 | 3168 ft | 161 kts | 323° |
| 2026-04-27 15:46 | 18.35770 | -64.87014 | 3278 ft | 159 kts | 306° |
| 2026-04-27 15:46 | 18.36286 | -64.88049 | 3352 ft | 159 kts | 290° |
| 2026-04-27 15:46 | 18.36704 | -64.89119 | 3397 ft | 162 kts | 295° |
| 2026-04-27 15:47 | 18.37183 | -64.90221 | 3414 ft | 165 kts | 294° |
| 2026-04-27 15:47 | 18.37693 | -64.91300 | 3480 ft | 164 kts | 296° |
| 2026-04-27 15:47 | 18.38240 | -64.92380 | 3452 ft | 170 kts | 298° |
| 2026-04-27 15:47 | 18.38791 | -64.93478 | 3477 ft | 170 kts | 296° |
| 2026-04-27 15:48 | 18.39343 | -64.94569 | 3528 ft | 168 kts | 298° |
| 2026-04-27 15:48 | 18.39938 | -64.95616 | 3596 ft | 168 kts | 304° |
| 2026-04-27 15:48 | 18.40679 | -64.96587 | 3580 ft | 171 kts | 318° |
| 2026-04-27 15:49 | 18.42854 | -64.97347 | 3495 ft | 173 kts | 21° |
| 2026-04-27 15:49 | 18.43669 | -64.96497 | 3466 ft | 166 kts | 70° |
| 2026-04-27 15:49 | 18.43927 | -64.95368 | 3679 ft | 151 kts | 84° |
| 2026-04-27 15:49 | 18.44044 | -64.94281 | 3709 ft | 152 kts | 88° |
| 2026-04-27 15:50 | 18.44066 | -64.93142 | 3679 ft | 157 kts | 95° |
| 2026-04-27 15:50 | 18.43840 | -64.92039 | 3707 ft | 155 kts | 110° |
| 2026-04-27 15:50 | 18.43426 | -64.91006 | 3789 ft | 152 kts | 113° |
| 2026-04-27 15:50 | 18.43058 | -64.89953 | 3768 ft | 155 kts | 110° |
| 2026-04-27 15:51 | 18.42694 | -64.88877 | 3835 ft | 153 kts | 112° |
| 2026-04-27 15:51 | 18.42300 | -64.87837 | 3842 ft | 155 kts | 110° |
| 2026-04-27 15:51 | 18.41930 | -64.86774 | 3870 ft | 154 kts | 109° |
| 2026-04-27 15:51 | 18.41672 | -64.85675 | 3886 ft | 155 kts | 103° |
| 2026-04-27 15:52 | 18.41429 | -64.84562 | 3866 ft | 158 kts | 105° |
| 2026-04-27 15:52 | 18.41092 | -64.83430 | 3821 ft | 161 kts | 111° |
| 2026-04-27 15:52 | 18.40659 | -64.82352 | 3776 ft | 162 kts | 115° |
| 2026-04-27 15:52 | 18.40171 | -64.81270 | 3750 ft | 162 kts | 115° |
| 2026-04-27 15:53 | 18.39717 | -64.80190 | 3699 ft | 164 kts | 113° |
| 2026-04-27 15:53 | 18.39249 | -64.79086 | 3642 ft | 164 kts | 117° |
| 2026-04-27 15:53 | 18.38691 | -64.78022 | 3494 ft | 170 kts | 120° |
| 2026-04-27 15:53 | 18.38090 | -64.76939 | 3345 ft | 170 kts | 121° |
| 2026-04-27 15:54 | 18.37432 | -64.75925 | 3227 ft | 167 kts | 131° |
| 2026-04-27 15:54 | 18.36535 | -64.75135 | 3067 ft | 167 kts | 148° |
| 2026-04-27 15:54 | 18.35461 | -64.74731 | 2976 ft | 167 kts | 169° |
| 2026-04-27 15:54 | 18.34292 | -64.74760 | 2869 ft | 166 kts | 186° |
| 2026-04-27 15:55 | 18.33185 | -64.74996 | 2911 ft | 159 kts | 189° |
| 2026-04-27 15:55 | 18.32447 | -64.75140 | 2812 ft | 163 kts | 186° |
| 2026-04-27 15:55 | 18.31010 | -64.74860 | 2755 ft | 151 kts | 138° |
| 2026-04-27 15:55 | 18.30472 | -64.73924 | 2579 ft | 161 kts | 108° |
| 2026-04-27 15:56 | 18.30400 | -64.72733 | 2382 ft | 166 kts | 84° |
| 2026-04-27 15:56 | 18.30819 | -64.71641 | 2436 ft | 159 kts | 59° |
| 2026-04-27 15:56 | 18.31618 | -64.70808 | 2363 ft | 163 kts | 39° |
| 2026-04-27 15:56 | 18.32538 | -64.70189 | 2520 ft | 151 kts | 34° |
| 2026-04-27 15:57 | 18.33446 | -64.69631 | 2497 ft | 153 kts | 34° |
| 2026-04-27 15:57 | 18.34395 | -64.69134 | 2548 ft | 150 kts | 28° |
| 2026-04-27 15:57 | 18.35369 | -64.68694 | 2549 ft | 152 kts | 25° |
| 2026-04-27 15:57 | 18.36371 | -64.68285 | 2529 ft | 153 kts | 29° |
| 2026-04-27 15:58 | 18.37292 | -64.67776 | 2580 ft | 149 kts | 33° |
| 2026-04-27 15:58 | 18.38226 | -64.67262 | 2572 ft | 151 kts | 31° |
| 2026-04-27 15:58 | 18.39144 | -64.66732 | 2586 ft | 150 kts | 35° |
| 2026-04-27 15:58 | 18.39869 | -64.65961 | 2555 ft | 149 kts | 63° |
| 2026-04-27 15:59 | 18.40333 | -64.64998 | 2615 ft | 145 kts | 67° |
| 2026-04-27 15:59 | 18.40763 | -64.64044 | 2653 ft | 144 kts | 68° |
| 2026-04-27 15:59 | 18.41183 | -64.63094 | 2664 ft | 144 kts | 69° |
| 2026-04-27 15:59 | 18.41603 | -64.62129 | 2661 ft | 145 kts | 68° |
| 2026-04-27 16:00 | 18.42006 | -64.61153 | 2668 ft | 144 kts | 76° |
| 2026-04-27 16:00 | 18.42096 | -64.60464 | 2632 ft | 145 kts | 94° |
| 2026-04-27 16:00 | 18.41664 | -64.59131 | 2676 ft | 139 kts | 116° |
| 2026-04-27 16:00 | 18.41256 | -64.58242 | 2748 ft | 136 kts | 118° |
| 2026-04-27 16:01 | 18.40786 | -64.57311 | 2630 ft | 145 kts | 119° |
| 2026-04-27 16:01 | 18.40256 | -64.56447 | 2733 ft | 137 kts | 126° |
| 2026-04-27 16:01 | 18.39713 | -64.55589 | 2623 ft | 146 kts | 121° |
| 2026-04-27 16:01 | 18.39191 | -64.54652 | 2595 ft | 146 kts | 120° |
| 2026-04-27 16:02 | 18.38663 | -64.53737 | 2592 ft | 145 kts | 124° |
| 2026-04-27 16:02 | 18.38062 | -64.52902 | 2575 ft | 145 kts | 126° |
| 2026-04-27 16:02 | 18.37464 | -64.51993 | 2451 ft | 152 kts | 123° |
| 2026-04-27 16:02 | 18.36914 | -64.51077 | 2492 ft | 146 kts | 121° |
| 2026-04-27 16:03 | 18.36469 | -64.50108 | 2438 ft | 148 kts | 111° |
| 2026-04-27 16:03 | 18.36494 | -64.49040 | 2358 ft | 155 kts | 68° |
| 2026-04-27 16:03 | 18.37342 | -64.48381 | 2354 ft | 160 kts | 11° |
| 2026-04-27 16:03 | 18.38382 | -64.48769 | 2304 ft | 166 kts | 314° |
| 2026-04-27 16:04 | 18.39118 | -64.49702 | 2242 ft | 169 kts | 311° |
| 2026-04-27 16:04 | 18.39907 | -64.50637 | 2144 ft | 172 kts | 313° |
| 2026-04-27 16:04 | 18.40800 | -64.51540 | 1962 ft | 180 kts | 320° |
| 2026-04-27 16:04 | 18.41803 | -64.52322 | 1869 ft | 178 kts | 330° |
| 2026-04-27 16:05 | 18.42912 | -64.52937 | 1732 ft | 180 kts | 335° |
| 2026-04-27 16:05 | 18.44025 | -64.53534 | 1635 ft | 178 kts | 337° |
| 2026-04-27 16:05 | 18.45170 | -64.54044 | 1581 ft | 175 kts | 339° |
| 2026-04-27 16:05 | 18.46267 | -64.54538 | 1595 ft | 169 kts | 338° |
| 2026-04-27 16:06 | 18.47310 | -64.55044 | 1705 ft | 160 kts | 336° |
| 2026-04-27 16:06 | 18.48333 | -64.55584 | 1644 ft | 165 kts | 333° |
| 2026-04-27 16:06 | 18.49253 | -64.56332 | 1576 ft | 168 kts | 311° |
| 2026-04-27 16:06 | 18.49638 | -64.57426 | 1620 ft | 159 kts | 263° |
| 2026-04-27 16:07 | 18.49144 | -64.58347 | 1644 ft | 135 kts | 211° |
| 2026-04-27 16:07 | 18.48303 | -64.58647 | 1572 ft | 125 kts | 181° |
| 2026-04-27 16:07 | 18.47497 | -64.58577 | 1484 ft | 110 kts | 165° |
| 2026-04-27 16:07 | 18.46787 | -64.58372 | 1275 ft | 100 kts | 158° |
| 2026-04-27 16:08 | 18.46176 | -64.58135 | 1081 ft | 88 kts | 158° |
| 2026-04-27 16:08 | 18.45624 | -64.57900 | 888 ft | 85 kts | 154° |
| 2026-04-27 16:08 | 18.45118 | -64.57656 | 904 ft | 75 kts | 152° |
| 2026-04-27 16:08 | 18.44674 | -64.57411 | 912 ft | 72 kts | 144° |
| 2026-04-27 16:09 | 18.44266 | -64.57117 | 934 ft | 71 kts | 144° |
| 2026-04-27 16:09 | 18.43813 | -64.56274 | 554 ft | 68 kts | 89° |
| 2026-04-27 16:09 | 18.43871 | -64.55776 | 329 ft | 69 kts | 89° |
| 2026-04-27 16:10 | 18.44194 | -64.54861 | 119 ft | 68 kts | 65° |
| 2026-04-27 16:10 | 18.44653 | -64.53976 | 15 ft | 56 kts | 60° |
| 2026-04-27 16:11 | 18.44892 | -64.53552 | 96 ft | 83 kts | 61° |
| 2026-04-27 16:11 | 18.45188 | -64.52541 | 679 ft | 71 kts | 110° |
| 2026-04-27 16:12 | 18.44668 | -64.51575 | 1153 ft | 81 kts | 126° |
| 2026-04-27 16:12 | 18.44274 | -64.51111 | 1226 ft | 89 kts | 130° |
| 2026-04-27 16:12 | 18.43125 | -64.51136 | 1305 ft | 102 kts | 220° |
| 2026-04-27 16:13 | 18.42744 | -64.51764 | 1361 ft | 104 kts | 235° |
| 2026-04-27 16:13 | 18.42016 | -64.53061 | 1333 ft | 103 kts | 244° |
| 2026-04-27 16:13 | 18.42016 | -64.53739 | 1140 ft | 90 kts | 290° |
| 2026-04-27 16:14 | 18.42618 | -64.54822 | 650 ft | 84 kts | 321° |
| 2026-04-27 16:14 | 18.43676 | -64.55278 | 341 ft | 85 kts | 12° |
| 2026-04-27 16:15 | 18.44385 | -64.54489 | 24 ft | 65 kts | 63° |
| 2026-04-27 16:15 | 18.44659 | -64.53960 | 15 ft | 9 kts | 70° |
| 2026-04-27 16:16 | 18.44643 | -64.53914 | 15 ft | 0 kts | 152° |
| 2026-04-27 16:16 | 18.44606 | -64.53898 | 15 ft | 0 kts | 203° |
| 2026-04-27 16:17 | 18.44550 | -64.53899 | 15 ft | 7 kts | 149° |
| 2026-04-27 16:17 | 18.44468 | -64.53838 | 16 ft | 3 kts | 52° |
| 2026-04-27 16:18 | 18.44478 | -64.53822 | 16 ft | 0 kts | 65° |
| 2026-04-27 16:21 | 18.44511 | -64.53799 | 15 ft | 6 kts | 327° |
| 2026-04-27 16:22 | 18.44566 | -64.53831 | 15 ft | 11 kts | 331° |
| 2026-04-27 16:22 | 18.44568 | -64.53952 | 16 ft | 10 kts | 242° |
| 2026-04-27 16:22 | 18.44532 | -64.54017 | 17 ft | 10 kts | 243° |
| 2026-04-27 16:23 | 18.44514 | -64.54079 | 17 ft | 8 kts | 292° |
| 2026-04-27 16:23 | 18.44509 | -64.54242 | 18 ft | 13 kts | 243° |
| 2026-04-27 16:23 | 18.44467 | -64.54325 | 19 ft | 12 kts | 240° |
| 2026-04-27 16:24 | 18.44427 | -64.54400 | 20 ft | 11 kts | 240° |
| 2026-04-27 16:24 | 18.44298 | -64.54511 | 20 ft | 13 kts | 193° |
| 2026-04-27 16:25 | 18.44226 | -64.54630 | 20 ft | 10 kts | 281° |
| 2026-04-27 16:25 | 18.44257 | -64.54720 | 20 ft | 5 kts | 95° |
| 2026-04-27 16:26 | 18.44551 | -64.54180 | 67 ft | 95 kts | 62° |
| 2026-04-27 16:26 | 18.45178 | -64.53110 | 642 ft | 86 kts | 64° |
| 2026-04-27 16:27 | 18.45342 | -64.51921 | 1137 ft | 82 kts | 95° |
| 2026-04-27 16:27 | 18.44835 | -64.49568 | 1431 ft | 131 kts | 113° |
| 2026-04-27 16:28 | 18.44310 | -64.47575 | 1509 ft | 152 kts | 98° |
| 2026-04-27 16:28 | 18.44452 | -64.45252 | 1507 ft | 163 kts | 87° |
| 2026-04-27 16:29 | 18.44497 | -64.41682 | 1383 ft | 167 kts | 108° |
| 2026-04-27 16:30 | 18.42897 | -64.40170 | 1221 ft | 163 kts | 171° |
| 2026-04-27 16:30 | 18.40909 | -64.40452 | 1591 ft | 130 kts | 211° |
| 2026-04-27 16:31 | 18.41408 | -64.42491 | 1132 ft | 101 kts | 326° |
| 2026-04-27 16:31 | 18.42525 | -64.43070 | 721 ft | 86 kts | 352° |
| 2026-04-27 16:32 | 18.43622 | -64.43062 | 356 ft | 79 kts | 17° |
| 2026-04-27 16:32 | 18.44183 | -64.42924 | 84 ft | 85 kts | 20° |
| 2026-04-27 16:33 | 18.44962 | -64.42708 | 18 ft | 15 kts | 12° |
| 2026-04-27 16:33 | 18.45023 | -64.42701 | 17 ft | 4 kts | 288° |
| 2026-04-27 16:33 | 18.45029 | -64.42725 | 17 ft | 3 kts | 20° |
| 2026-04-27 16:33 | 18.45031 | -64.42718 | 17 ft | 0 kts | 96° |
| 2026-04-27 16:36 | 18.45031 | -64.42716 | 17 ft | 1 kts | 94° |
| 2026-04-27 16:36 | 18.45027 | -64.42693 | 17 ft | 4 kts | 132° |
| 2026-04-27 16:36 | 18.45006 | -64.42691 | 17 ft | 3 kts | 189° |
| 2026-04-27 16:36 | 18.44984 | -64.42699 | 18 ft | 6 kts | 194° |
| 2026-04-27 16:37 | 18.44923 | -64.42714 | 17 ft | 11 kts | 192° |
| 2026-04-27 16:37 | 18.44838 | -64.42738 | 18 ft | 13 kts | 194° |
| 2026-04-27 16:37 | 18.44740 | -64.42766 | 18 ft | 15 kts | 196° |
| 2026-04-27 16:37 | 18.44633 | -64.42796 | 19 ft | 16 kts | 195° |
| 2026-04-27 16:38 | 18.44515 | -64.42829 | 20 ft | 17 kts | 194° |
| 2026-04-27 16:38 | 18.44392 | -64.42863 | 20 ft | 18 kts | 194° |
| 2026-04-27 16:38 | 18.44300 | -64.42892 | 21 ft | 9 kts | 203° |
| 2026-04-27 16:38 | 18.44275 | -64.42917 | 23 ft | 2 kts | 151° |
| 2026-04-27 16:39 | 18.44272 | -64.42897 | 21 ft | 0 kts | 34° |
| 2026-04-27 16:39 | 18.44275 | -64.42896 | 21 ft | 0 kts | 6° |
| 2026-04-27 16:39 | 18.44356 | -64.42872 | 20 ft | 46 kts | 14° |
| 2026-04-27 16:40 | 18.44904 | -64.42721 | 91 ft | 100 kts | 16° |
| 2026-04-27 16:40 | 18.45528 | -64.42571 | 441 ft | 92 kts | 20° |
| 2026-04-27 16:40 | 18.46054 | -64.42190 | 601 ft | 102 kts | 59° |
| 2026-04-27 16:40 | 18.46319 | -64.41493 | 870 ft | 103 kts | 78° |
| 2026-04-27 16:41 | 18.46492 | -64.40739 | 1108 ft | 108 kts | 81° |
| 2026-04-27 16:41 | 18.46679 | -64.39992 | 1423 ft | 104 kts | 74° |
| 2026-04-27 16:41 | 18.46928 | -64.39272 | 1687 ft | 107 kts | 70° |
| 2026-04-27 16:41 | 18.47184 | -64.38547 | 1967 ft | 105 kts | 83° |
| 2026-04-27 16:42 | 18.47246 | -64.37786 | 2237 ft | 104 kts | 89° |
| 2026-04-27 16:42 | 18.47313 | -64.37013 | 2494 ft | 106 kts | 85° |
| 2026-04-27 16:42 | 18.47432 | -64.36250 | 2746 ft | 107 kts | 80° |
| 2026-04-27 16:42 | 18.47632 | -64.35484 | 2982 ft | 109 kts | 73° |
| 2026-04-27 16:43 | 18.47928 | -64.34750 | 3223 ft | 111 kts | 64° |
| 2026-04-27 16:43 | 18.48322 | -64.33992 | 3323 ft | 125 kts | 65° |
| 2026-04-27 16:43 | 18.48751 | -64.33221 | 3639 ft | 116 kts | 63° |
| 2026-04-27 16:43 | 18.49157 | -64.32471 | 3805 ft | 124 kts | 65° |
| 2026-04-27 16:44 | 18.49681 | -64.31691 | 3901 ft | 135 kts | 43° |
| 2026-04-27 16:44 | 18.50609 | -64.31480 | 4022 ft | 146 kts | 349° |
| 2026-04-27 16:44 | 18.51565 | -64.31833 | 4175 ft | 148 kts | 341° |
| 2026-04-27 16:44 | 18.52549 | -64.32264 | 4276 ft | 154 kts | 337° |
| 2026-04-27 16:45 | 18.53499 | -64.32766 | 4450 ft | 153 kts | 334° |
| 2026-04-27 16:45 | 18.54476 | -64.33334 | 4474 ft | 159 kts | 330° |
| 2026-04-27 16:45 | 18.55425 | -64.33923 | 4494 ft | 166 kts | 334° |
| 2026-04-27 16:45 | 18.56589 | -64.34177 | 4294 ft | 175 kts | 11° |
| 2026-04-27 16:46 | 18.57668 | -64.33627 | 4247 ft | 173 kts | 37° |
| 2026-04-27 16:46 | 18.58642 | -64.32834 | 4101 ft | 179 kts | 42° |
| 2026-04-27 16:46 | 18.59574 | -64.31994 | 4065 ft | 175 kts | 44° |
| 2026-04-27 16:46 | 18.60482 | -64.31136 | 3979 ft | 174 kts | 46° |
| 2026-04-27 16:47 | 18.61339 | -64.30203 | 3842 ft | 176 kts | 51° |
| 2026-04-27 16:47 | 18.62173 | -64.29272 | 3807 ft | 173 kts | 50° |
| 2026-04-27 16:47 | 18.63004 | -64.28352 | 3723 ft | 174 kts | 46° |
| 2026-04-27 16:47 | 18.63990 | -64.27578 | 3597 ft | 178 kts | 34° |
| 2026-04-27 16:48 | 18.65108 | -64.27029 | 3557 ft | 177 kts | 25° |
| 2026-04-27 16:48 | 18.66252 | -64.26572 | 3489 ft | 177 kts | 24° |
| 2026-04-27 16:48 | 18.67418 | -64.26102 | 3380 ft | 179 kts | 22° |
| 2026-04-27 16:49 | 18.69928 | -64.25957 | 3228 ft | 182 kts | 351° |
| 2026-04-27 16:49 | 18.71132 | -64.26366 | 3160 ft | 183 kts | 338° |
| 2026-04-27 16:49 | 18.72271 | -64.27000 | 3088 ft | 184 kts | 330° |
| 2026-04-27 16:49 | 18.73349 | -64.27729 | 3060 ft | 181 kts | 328° |
| 2026-04-27 16:50 | 18.74286 | -64.28644 | 2893 ft | 189 kts | 309° |
| 2026-04-27 16:50 | 18.74950 | -64.29845 | 2806 ft | 188 kts | 294° |
| 2026-04-27 16:50 | 18.75372 | -64.31124 | 2841 ft | 182 kts | 285° |
| 2026-04-27 16:50 | 18.75685 | -64.32443 | 2665 ft | 189 kts | 282° |
| 2026-04-27 16:51 | 18.75899 | -64.33819 | 2518 ft | 191 kts | 274° |
| 2026-04-27 16:51 | 18.75972 | -64.35184 | 2511 ft | 185 kts | 272° |
| 2026-04-27 16:51 | 18.76158 | -64.36552 | 2388 ft | 189 kts | 278° |
| 2026-04-27 16:51 | 18.76324 | -64.37918 | 2286 ft | 190 kts | 276° |
| 2026-04-27 16:52 | 18.76473 | -64.39297 | 2250 ft | 186 kts | 271° |
| 2026-04-27 16:52 | 18.76364 | -64.40653 | 2223 ft | 182 kts | 256° |
| 2026-04-27 16:52 | 18.75860 | -64.41818 | 2302 ft | 170 kts | 227° |
| 2026-04-27 16:52 | 18.74876 | -64.42432 | 2296 ft | 163 kts | 188° |
| 2026-04-27 16:53 | 18.73851 | -64.42255 | 2574 ft | 140 kts | 146° |
| 2026-04-27 16:53 | 18.73250 | -64.41416 | 2426 ft | 154 kts | 109° |
| 2026-04-27 16:53 | 18.73219 | -64.40321 | 2500 ft | 152 kts | 79° |
| 2026-04-27 16:53 | 18.73602 | -64.39237 | 2392 ft | 161 kts | 72° |
| 2026-04-27 16:54 | 18.73946 | -64.38088 | 2244 ft | 167 kts | 79° |
| 2026-04-27 16:54 | 18.74179 | -64.36874 | 2097 ft | 171 kts | 83° |
| 2026-04-27 16:54 | 18.74283 | -64.35633 | 1971 ft | 171 kts | 95° |
| 2026-04-27 16:54 | 18.73932 | -64.34418 | 1693 ft | 172 kts | 117° |
| 2026-04-27 16:55 | 18.73284 | -64.33397 | 1523 ft | 166 kts | 128° |
| 2026-04-27 16:55 | 18.72476 | -64.32582 | 1432 ft | 158 kts | 142° |
| 2026-04-27 16:55 | 18.71612 | -64.32030 | 1622 ft | 138 kts | 147° |
| 2026-04-27 16:55 | 18.70875 | -64.31438 | 1776 ft | 116 kts | 129° |
| 2026-04-27 16:56 | 18.70639 | -64.30791 | 1976 ft | 81 kts | 85° |
| 2026-04-27 16:56 | 18.70813 | -64.30205 | 1815 ft | 90 kts | 76° |
| 2026-04-27 16:56 | 18.71071 | -64.29573 | 1664 ft | 92 kts | 68° |
| 2026-04-27 16:56 | 18.71388 | -64.29013 | 1563 ft | 87 kts | 68° |
| 2026-04-27 16:57 | 18.71828 | -64.28670 | 1535 ft | 88 kts | 2° |
| 2026-04-27 16:57 | 18.72385 | -64.29006 | 1429 ft | 92 kts | 325° |
| 2026-04-27 16:57 | 18.72865 | -64.29448 | 1296 ft | 92 kts | 320° |
| 2026-04-27 16:57 | 18.73224 | -64.29950 | 1076 ft | 88 kts | 285° |
| 2026-04-27 16:58 | 18.73316 | -64.30599 | 769 ft | 91 kts | 271° |
| 2026-04-27 16:58 | 18.73225 | -64.31242 | 477 ft | 88 kts | 246° |
| 2026-04-27 16:58 | 18.73046 | -64.31840 | 245 ft | 82 kts | 248° |
| 2026-04-27 16:58 | 18.72893 | -64.32400 | 49 ft | 78 kts | 249° |
| 2026-04-27 16:59 | 18.72756 | -64.32919 | 89 ft | 74 kts | 251° |
| 2026-04-27 16:59 | 18.72600 | -64.33431 | 322 ft | 74 kts | 241° |
| 2026-04-27 16:59 | 18.72358 | -64.33876 | 622 ft | 69 kts | 212° |
| 2026-04-27 16:59 | 18.71973 | -64.33800 | 867 ft | 64 kts | 116° |
| 2026-04-27 17:00 | 18.72105 | -64.32969 | 1125 ft | 77 kts | 73° |
| 2026-04-27 17:00 | 18.72270 | -64.32202 | 1253 ft | 78 kts | 84° |
| 2026-04-27 17:00 | 18.72392 | -64.31655 | 1249 ft | 78 kts | 82° |
| 2026-04-27 17:01 | 18.72493 | -64.31102 | 1159 ft | 70 kts | 85° |
| 2026-04-27 17:01 | 18.72561 | -64.30624 | 991 ft | 63 kts | 87° |
| 2026-04-27 17:01 | 18.72769 | -64.30250 | 810 ft | 73 kts | 23° |
| 2026-04-27 17:01 | 18.73192 | -64.30513 | 760 ft | 76 kts | 290° |
| 2026-04-27 17:02 | 18.73241 | -64.31100 | 505 ft | 88 kts | 259° |
| 2026-04-27 17:02 | 18.73092 | -64.31699 | 287 ft | 80 kts | 249° |
| 2026-04-27 17:02 | 18.72933 | -64.32260 | 75 ft | 80 kts | 249° |
| 2026-04-27 17:02 | 18.72792 | -64.32770 | 25 ft | 61 kts | 253° |
| 2026-04-27 17:03 | 18.72736 | -64.32990 | 25 ft | 13 kts | 284° |
| 2026-04-27 17:03 | 18.72784 | -64.33017 | 25 ft | 2 kts | 200° |
| 2026-04-27 17:03 | 18.72783 | -64.33017 | 25 ft | 0 kts | 165° |